Etusivu
METAR-TAF:

METAR-TAF

Lentoasemat :

Kingston, Jamaika

Leveyspiiri: 17-56N, Pituuspiiri: 076-47W, korkeus merenpinnasta: 3 m

Tämänhetkinen sää

Tämä raportti tehtiin 42 minuuttia sitten, kello 12.00 UTC
Tuuli 4 kn pohjoisesta
Lämpötila 27°C
Kosteus 74%
Ilmanpaine 1011 hPa
Näkyvyys 10 km tai enemmän
Muutamia pilviä 2000 ft:n korkeudessa
Muutamia pilviä 2200 ft:n korkeudessa, Cumulonimbus.

METAR: MKJP 231200Z 35004KT 9999 FEW020 FEW022CB 27/22 Q1011

Aika: 07:42 (12:42 UTC)

Sääennuste

Tämä raportti tehtiin 1 tunti ja 27 minuuttia sitten, kello 11.15 UTC
Ennuste voimassa 23. päivästä klo 12 UTC - 24. päivään klo 12 UTC
Tuuli 20 kn etelästä/kaakosta
Näkyvyys 10 km tai enemmän
Muutamia pilviä 2200 ft:n korkeudessa, Cumulonimbus.
Tulossa
24. päivästä klo 01 UTC - 24. päivään klo 03 UTC
Tuuli 5 kn pohjoisesta
Muutamia pilviä 2200 ft:n korkeudessa

TAF: MKJP 231115Z 2312/2412 15020KT 9999 FEW022CB BECMG 2401/2403 36005KT FEW022

Säähavainnot ja -ennusteet yli 4000 lentoasemalta (METAR- ja TAF-raportit).

Käytössä olevat sääasemat on merkitty karttaan keltaisilla ja punaisilla pisteillä.

Aseta hiiri pisteen päälle nähdäksesi sääaseman nimen.

Klikkaa sitten nähdäksesi säähavainnot ja -ennusteet.

Kartan vaihtaminen: klikkaa mustalla rastilla varustettuja vihreitä pisteitä, niin voit zoomata sisään; viivalla varustettua vihreää pistettä, niin voit zoomata ulos tai vihreitä nuolia, niin pääset viereisille kartoille.


METAR-TAF: